createdAt,value
2019-05-12T00:01:09.171Z,25.93
2019-05-12T00:03:37.873Z,18.83
2019-05-12T00:06:08.645Z,20.40
2019-05-12T00:08:38.126Z,17.57
2019-05-12T00:11:08.807Z,22.43
2019-05-12T00:13:38.551Z,21.27
2019-05-12T00:16:08.651Z,20.50
2019-05-12T00:18:37.776Z,20.10
2019-05-12T00:21:08.659Z,21.47
2019-05-12T00:23:38.227Z,18.73
2019-05-12T00:26:07.976Z,25.23
2019-05-12T00:28:37.705Z,26.17
2019-05-12T00:31:08.263Z,22.80
2019-05-12T00:33:38.470Z,26.07
2019-05-12T00:36:08.007Z,28.27
2019-05-12T00:38:38.152Z,26.70
2019-05-12T00:41:08.622Z,28.10
2019-05-12T00:43:38.211Z,30.00
2019-05-12T00:46:07.916Z,33.33
2019-05-12T00:48:37.608Z,35.63
2019-05-12T00:51:07.807Z,29.90
2019-05-12T00:53:42.700Z,33.47
2019-05-12T00:56:08.308Z,32.43
2019-05-12T00:58:38.228Z,34.93
2019-05-12T01:01:08.153Z,32.70
2019-05-12T01:03:38.200Z,31.80
2019-05-12T01:06:08.410Z,29.43
2019-05-12T01:08:38.313Z,37.17
2019-05-12T01:11:08.728Z,32.73
2019-05-12T01:13:38.259Z,36.60
2019-05-12T01:16:08.111Z,40.40
2019-05-12T01:18:38.429Z,41.53
2019-05-12T01:21:07.731Z,38.23
2019-05-12T01:23:51.948Z,39.93
2019-05-12T01:26:08.665Z,36.70
2019-05-12T01:28:38.305Z,41.33
2019-05-12T01:31:08.539Z,39.60
2019-05-12T01:33:38.142Z,39.97
2019-05-12T01:36:07.935Z,42.30
2019-05-12T01:38:37.966Z,41.50
2019-05-12T01:41:08.547Z,43.03
2019-05-12T01:43:38.202Z,44.67
2019-05-12T01:46:08.053Z,44.20
2019-05-12T01:48:37.788Z,43.00
2019-05-12T01:51:08.236Z,43.70
2019-05-12T01:53:37.886Z,47.37
2019-05-12T01:56:07.865Z,49.17
2019-05-12T01:58:38.181Z,36.57
2019-05-12T02:01:08.202Z,49.30
2019-05-12T02:03:37.727Z,47.10
2019-05-12T02:06:08.264Z,41.30
2019-05-12T02:08:40.600Z,47.67
2019-05-12T02:11:28.709Z,43.53
2019-05-12T02:13:58.005Z,40.87
2019-05-12T02:16:28.165Z,41.67
2019-05-12T02:18:58.333Z,40.73
2019-05-12T02:21:27.957Z,41.93
2019-05-12T02:23:58.313Z,45.13
2019-05-12T02:26:28.899Z,47.63
2019-05-12T02:28:58.521Z,51.20
2019-05-12T02:31:29.403Z,45.73
2019-05-12T02:33:56.650Z,46.40
2019-05-12T02:36:26.047Z,50.20
2019-05-12T02:38:55.929Z,40.80
2019-05-12T02:41:25.957Z,42.47
2019-05-12T02:43:55.345Z,44.13
2019-05-12T02:46:25.479Z,44.97
2019-05-12T02:48:54.728Z,44.30
2019-05-12T02:51:24.841Z,47.03
2019-05-12T02:53:54.657Z,46.93
2019-05-12T02:56:25.625Z,43.73
2019-05-12T02:58:54.335Z,52.87
2019-05-12T03:01:24.401Z,46.50
2019-05-12T03:03:55.141Z,50.87
2019-05-12T03:06:25.137Z,46.10
2019-05-12T03:08:55.066Z,47.47
2019-05-12T03:11:24.854Z,47.37
2019-05-12T03:13:54.846Z,46.83
2019-05-12T03:16:25.744Z,47.33
2019-05-12T03:18:55.338Z,48.10
2019-05-12T03:21:24.537Z,48.20
2019-05-12T03:23:55.056Z,43.93
2019-05-12T03:26:24.716Z,44.33
2019-05-12T03:28:55.603Z,40.70
2019-05-12T03:31:30.570Z,41.73
2019-05-12T03:33:59.579Z,44.00
2019-05-12T03:36:32.409Z,45.30
2019-05-12T03:38:55.153Z,46.97
2019-05-12T03:41:25.047Z,45.60
2019-05-12T03:43:55.016Z,44.67
2019-05-12T03:46:24.840Z,42.17
2019-05-12T03:48:55.315Z,39.17
2019-05-12T03:51:25.048Z,42.03
2019-05-12T03:53:55.601Z,41.40
2019-05-12T03:56:25.867Z,43.50
2019-05-12T03:58:54.187Z,40.33
2019-05-12T04:01:25.560Z,41.00
2019-05-12T04:03:54.174Z,42.93
2019-05-12T04:06:24.596Z,42.73
2019-05-12T04:08:55.031Z,40.47
2019-05-12T04:11:25.017Z,38.77
2019-05-12T04:13:55.014Z,40.13
2019-05-12T04:16:24.701Z,41.67
2019-05-12T04:18:55.209Z,44.10
2019-05-12T04:21:24.333Z,37.63
2019-05-12T04:23:54.842Z,40.90
2019-05-12T04:26:25.370Z,47.43
2019-05-12T04:28:54.804Z,41.20
2019-05-12T04:31:24.941Z,41.20
2019-05-12T04:33:54.687Z,48.13
2019-05-12T04:36:24.840Z,49.40
2019-05-12T04:38:55.651Z,38.97
2019-05-12T04:41:25.958Z,49.73
2019-05-12T04:43:55.112Z,40.23
2019-05-12T04:46:25.204Z,48.43
2019-05-12T04:48:54.596Z,41.40
2019-05-12T04:51:25.876Z,45.30
2019-05-12T04:53:54.872Z,40.47
2019-05-12T04:56:24.989Z,35.40
2019-05-12T04:58:54.595Z,38.60
2019-05-12T05:01:25.392Z,42.33
2019-05-12T05:03:54.519Z,37.87
2019-05-12T05:06:25.433Z,38.87
2019-05-12T05:08:54.433Z,39.60
2019-05-12T05:11:24.998Z,43.23
2019-05-12T05:13:54.788Z,36.03
2019-05-12T05:16:24.877Z,38.17
2019-05-12T05:18:54.322Z,39.10
2019-05-12T05:21:23.981Z,38.93
2019-05-12T05:23:53.650Z,31.90
2019-05-12T05:26:27.895Z,35.20
2019-05-12T05:28:54.276Z,36.93
2019-05-12T05:31:24.264Z,37.83
2019-05-12T05:33:53.662Z,32.17
2019-05-12T05:36:22.232Z,35.93
2019-05-12T05:38:51.110Z,34.00
2019-05-12T05:41:20.660Z,35.73
2019-05-12T05:43:54.287Z,38.33
2019-05-12T05:46:19.231Z,38.63
2019-05-12T05:48:47.622Z,33.10
2019-05-12T05:51:16.010Z,37.23
2019-05-12T05:53:44.432Z,32.10
2019-05-12T05:56:14.389Z,29.50
2019-05-12T05:58:47.058Z,33.37
2019-05-12T06:01:13.678Z,30.97
2019-05-12T06:03:44.124Z,32.03
2019-05-12T06:06:15.160Z,35.40
2019-05-12T06:08:44.469Z,30.10
2019-05-12T06:11:14.814Z,31.53
2019-05-12T06:13:44.324Z,30.60
2019-05-12T06:16:20.224Z,29.83
2019-05-12T06:18:44.023Z,32.70
2019-05-12T06:21:13.743Z,28.00
2019-05-12T06:23:43.422Z,30.83
2019-05-12T06:26:14.005Z,30.17
2019-05-12T06:28:43.989Z,32.37
2019-05-12T06:31:13.760Z,33.37
2019-05-12T06:33:44.527Z,29.53
2019-05-12T06:36:14.082Z,28.90
2019-05-12T06:38:43.485Z,29.80
2019-05-12T06:41:20.263Z,26.07
2019-05-12T06:43:44.697Z,22.57
2019-05-12T06:46:20.026Z,29.07
2019-05-12T06:48:43.330Z,26.43
2019-05-12T06:51:17.019Z,30.40
2019-05-12T06:53:44.186Z,24.97
2019-05-12T06:56:15.419Z,24.87
2019-05-12T06:58:44.213Z,26.43
2019-05-12T07:01:19.235Z,22.70
2019-05-12T07:03:44.003Z,23.30
2019-05-12T07:06:17.523Z,32.10
2019-05-12T07:08:43.879Z,21.33
2019-05-12T07:11:14.299Z,23.23
2019-05-12T07:13:43.629Z,28.17
2019-05-12T07:16:22.039Z,25.70
2019-05-12T07:18:46.819Z,25.27
2019-05-12T07:21:19.693Z,21.73
2019-05-12T07:23:45.230Z,22.23
2019-05-12T07:26:19.236Z,23.47
2019-05-12T07:28:43.676Z,20.60
2019-05-12T07:31:14.054Z,22.27
2019-05-12T07:33:45.715Z,19.47
2019-05-12T07:36:13.749Z,18.27
2019-05-12T07:38:43.437Z,18.43
2019-05-12T07:41:14.273Z,19.27
2019-05-12T07:43:44.127Z,16.70
2019-05-12T07:46:13.385Z,23.60
2019-05-12T07:48:48.997Z,16.73
2019-05-12T07:51:13.755Z,18.23
2019-05-12T07:53:46.906Z,22.77
2019-05-12T07:56:14.304Z,17.03
2019-05-12T07:58:47.524Z,12.47
2019-05-12T08:01:14.403Z,15.60
2019-05-12T08:03:43.688Z,14.80
2019-05-12T08:06:14.235Z,18.17
2019-05-12T08:08:50.253Z,17.17
2019-05-12T08:11:14.751Z,14.40
2019-05-12T08:13:43.877Z,15.27
2019-05-12T08:16:14.185Z,15.13
2019-05-12T08:18:44.406Z,12.03
2019-05-12T08:21:14.004Z,10.17
2019-05-12T08:23:44.426Z,10.13
2019-05-12T08:26:18.268Z,12.30
2019-05-12T08:28:44.246Z,11.97
2019-05-12T08:31:14.086Z,11.37
2019-05-12T08:33:43.652Z,12.67
2019-05-12T08:36:15.978Z,8.87
2019-05-12T08:38:44.456Z,10.73
2019-05-12T08:41:14.562Z,12.87
2019-05-12T08:43:47.095Z,10.93
2019-05-12T08:46:15.450Z,10.33
2019-05-12T08:48:44.593Z,13.27
2019-05-12T08:51:14.576Z,15.53
2019-05-12T08:53:43.999Z,10.83
2019-05-12T08:56:18.165Z,13.50
2019-05-12T08:58:50.420Z,13.23
2019-05-12T09:01:13.837Z,11.20
2019-05-12T09:03:44.118Z,9.73
2019-05-12T09:06:15.442Z,9.43
2019-05-12T09:08:45.215Z,10.83
2019-05-12T09:11:13.961Z,11.17
2019-05-12T09:13:43.367Z,7.67
2019-05-12T09:16:13.841Z,6.43
2019-05-12T09:18:43.556Z,8.67
2019-05-12T09:21:13.902Z,7.73
2019-05-12T09:23:45.360Z,6.53
2019-05-12T09:26:13.485Z,11.77
2019-05-12T09:28:49.237Z,9.73
2019-05-12T09:31:14.054Z,8.13
2019-05-12T09:33:44.364Z,5.77
2019-05-12T09:36:19.885Z,7.23
2019-05-12T09:38:44.104Z,8.03
2019-05-12T09:41:14.021Z,8.33
2019-05-12T09:43:46.351Z,6.97
2019-05-12T09:46:14.385Z,6.37
2019-05-12T09:48:45.682Z,7.40
2019-05-12T09:51:13.760Z,8.20
2019-05-12T09:53:50.993Z,11.77
2019-05-12T09:56:13.708Z,6.27
2019-05-12T09:58:43.648Z,4.93
2019-05-12T10:01:14.037Z,6.13
2019-05-12T10:03:43.818Z,8.20
2019-05-12T10:06:18.011Z,6.17
2019-05-12T10:08:43.392Z,4.30
2019-05-12T10:11:16.458Z,11.47
2019-05-12T10:13:42.139Z,4.77
2019-05-12T10:16:10.521Z,6.10
2019-05-12T10:18:43.136Z,4.73
2019-05-12T10:21:10.046Z,7.17
2019-05-12T10:23:38.993Z,8.83
2019-05-12T10:26:10.428Z,4.67
2019-05-12T10:28:37.452Z,10.17
2019-05-12T10:31:05.847Z,5.83
2019-05-12T10:33:34.225Z,6.43
2019-05-12T10:36:06.827Z,8.17
2019-05-12T10:38:34.379Z,4.90
2019-05-12T10:41:04.260Z,5.47
2019-05-12T10:43:34.201Z,4.47
2019-05-12T10:46:04.168Z,7.17
2019-05-12T10:48:33.899Z,8.60
2019-05-12T10:51:02.515Z,6.13
2019-05-12T10:53:30.901Z,6.20
2019-05-12T10:55:59.281Z,4.93
2019-05-12T10:58:27.965Z,7.43
2019-05-12T11:00:59.100Z,5.03
2019-05-12T11:03:26.401Z,3.87
2019-05-12T11:06:02.537Z,4.97
2019-05-12T11:08:24.872Z,4.57
2019-05-12T11:10:59.235Z,4.07
2019-05-12T11:13:23.435Z,4.30
2019-05-12T11:15:51.792Z,6.67
2019-05-12T11:18:24.843Z,4.07
2019-05-12T11:20:50.211Z,3.67
2019-05-12T11:23:18.601Z,4.70
2019-05-12T11:25:46.977Z,4.80
2019-05-12T11:28:15.371Z,3.97
2019-05-12T11:30:43.837Z,4.23
2019-05-12T11:33:12.270Z,4.70
2019-05-12T11:35:40.652Z,7.87
2019-05-12T11:38:09.051Z,6.07
2019-05-12T11:40:37.456Z,4.63
2019-05-12T11:43:05.860Z,6.07
2019-05-12T11:45:34.300Z,5.00
2019-05-12T11:48:07.955Z,9.17
2019-05-12T11:50:32.751Z,5.87
2019-05-12T11:53:01.187Z,6.00
2019-05-12T11:55:31.718Z,5.57
2019-05-12T11:58:00.251Z,3.67
2019-05-12T12:00:33.455Z,5.27
2019-05-12T12:03:03.783Z,4.30
2019-05-12T12:05:33.369Z,4.27
2019-05-12T12:08:03.721Z,5.63
2019-05-12T12:10:35.441Z,7.33
2019-05-12T12:13:03.505Z,5.10
2019-05-12T12:15:31.513Z,5.77
2019-05-12T12:18:04.003Z,5.43
2019-05-12T12:20:29.939Z,5.50
2019-05-12T12:23:00.213Z,10.27
2019-05-12T12:25:33.887Z,4.83
2019-05-12T12:28:04.058Z,8.17
2019-05-12T12:30:33.749Z,10.63
2019-05-12T12:33:03.952Z,4.05
2019-05-12T12:35:34.052Z,4.60
2019-05-12T12:38:03.532Z,7.13
2019-05-12T12:40:31.965Z,5.93
2019-05-12T12:43:00.346Z,4.87
2019-05-12T12:45:40.152Z,9.13
2019-05-12T12:48:06.453Z,4.23
2019-05-12T12:50:34.822Z,6.33
2019-05-12T12:53:03.190Z,7.07
2019-05-12T12:55:31.652Z,4.97
2019-05-12T12:58:00.037Z,5.00
2019-05-12T13:00:32.708Z,6.20
2019-05-12T13:02:58.527Z,11.85
2019-05-12T13:05:26.911Z,5.00
2019-05-12T13:07:55.318Z,5.20
2019-05-12T13:10:24.861Z,8.13
2019-05-12T13:12:58.746Z,4.53
2019-05-12T13:15:23.698Z,6.27
2019-05-12T13:17:52.117Z,8.63
2019-05-12T13:20:20.497Z,5.33
2019-05-12T13:22:48.912Z,5.67
2019-05-12T13:25:17.288Z,3.83
2019-05-12T13:27:45.669Z,4.22
2019-05-12T13:30:19.858Z,8.10
2019-05-12T13:32:44.324Z,4.17
2019-05-12T13:35:16.569Z,7.10
2019-05-12T13:37:43.304Z,2.77
2019-05-12T13:40:11.833Z,3.47
2019-05-12T13:42:40.206Z,4.30
2019-05-12T13:45:08.627Z,6.87
2019-05-12T13:47:39.880Z,4.27
2019-05-12T13:50:07.011Z,5.57
2019-05-12T13:52:35.424Z,7.07
2019-05-12T13:55:05.724Z,3.33
2019-05-12T13:57:34.977Z,3.98
2019-05-12T14:00:10.726Z,3.63
2019-05-12T14:02:36.174Z,7.03
2019-05-12T14:05:11.066Z,3.95
2019-05-12T14:07:35.865Z,4.08
2019-05-12T14:10:06.687Z,4.20
2019-05-12T14:12:35.057Z,5.17
2019-05-12T14:15:05.491Z,3.87
2019-05-12T14:17:38.721Z,4.27
2019-05-12T14:20:09.215Z,5.53
2019-05-12T14:22:36.039Z,6.20
2019-05-12T14:25:05.587Z,8.17
2019-05-12T14:27:33.964Z,3.77
2019-05-12T14:30:09.777Z,3.47
2019-05-12T14:32:33.613Z,2.97
2019-05-12T14:35:04.138Z,5.73
2019-05-12T14:37:33.614Z,15.23
2019-05-12T14:40:04.375Z,10.63
2019-05-12T14:42:37.344Z,8.87
2019-05-12T14:45:04.532Z,9.17
2019-05-12T14:47:33.968Z,8.87
2019-05-12T14:50:04.094Z,9.40
2019-05-12T14:52:33.335Z,11.80
2019-05-12T14:55:03.461Z,11.77
2019-05-12T14:57:37.308Z,7.90
2019-05-12T15:00:03.782Z,5.63
2019-05-12T15:02:33.270Z,6.47
2019-05-12T15:05:06.536Z,9.33
2019-05-12T15:07:31.853Z,11.80
2019-05-12T15:10:02.427Z,6.40
2019-05-12T15:12:30.273Z,8.90
2019-05-12T15:14:58.653Z,7.53
2019-05-12T15:17:27.060Z,7.20
2019-05-12T15:20:00.363Z,8.40
2019-05-12T15:22:25.545Z,7.77
2019-05-12T15:24:57.038Z,9.90
2019-05-12T15:27:39.249Z,8.70
2019-05-12T15:29:56.187Z,10.37
2019-05-12T15:32:24.346Z,8.67
2019-05-12T15:34:52.723Z,8.43
2019-05-12T15:37:21.124Z,9.87
2019-05-12T15:39:49.523Z,10.37
2019-05-12T15:42:17.976Z,12.77
2019-05-12T15:44:47.390Z,18.73
2019-05-12T15:47:15.868Z,10.90
2019-05-12T15:49:44.384Z,11.87
2019-05-12T15:52:14.284Z,7.70
2019-05-12T15:54:47.161Z,8.67
2019-05-12T15:57:13.601Z,8.07
2019-05-12T15:59:43.482Z,7.07
2019-05-12T16:02:16.238Z,6.47
2019-05-12T16:04:43.075Z,7.97
2019-05-12T16:07:14.198Z,8.10
2019-05-12T16:09:45.376Z,12.90
2019-05-12T16:12:19.920Z,7.83
2019-05-12T16:14:44.183Z,8.70
2019-05-12T16:17:16.847Z,7.50
2019-05-12T16:19:43.762Z,7.63
2019-05-12T16:22:13.945Z,7.00
2019-05-12T16:24:43.406Z,11.23
2019-05-12T16:27:13.994Z,8.73
2019-05-12T16:29:45.546Z,15.77
2019-05-12T16:32:26.267Z,16.10
2019-05-12T16:34:47.243Z,13.07
2019-05-12T16:37:14.143Z,13.97
2019-05-12T16:39:47.173Z,11.97
2019-05-12T16:42:14.098Z,13.83
2019-05-12T16:44:43.996Z,13.20
2019-05-12T16:47:13.509Z,16.07
2019-05-12T16:49:44.623Z,15.07
2019-05-12T16:52:13.877Z,20.10
2019-05-12T16:54:43.923Z,11.57
2019-05-12T16:57:17.750Z,14.47
2019-05-12T16:59:42.645Z,11.13
2019-05-12T17:02:11.092Z,15.07
2019-05-12T17:04:39.517Z,11.47
2019-05-12T17:07:09.777Z,11.73
2019-05-12T17:09:38.157Z,13.20
2019-05-12T17:12:06.557Z,16.10
2019-05-12T17:14:36.664Z,15.27
2019-05-12T17:17:05.242Z,12.63
2019-05-12T17:19:34.054Z,15.30
2019-05-12T17:22:04.060Z,13.93
2019-05-12T17:24:34.462Z,16.10
2019-05-12T17:27:03.699Z,13.87
2019-05-12T17:29:33.384Z,18.53
2019-05-12T17:32:03.979Z,13.60
2019-05-12T17:34:33.995Z,13.43
2019-05-12T17:37:03.995Z,13.80
2019-05-12T17:39:35.734Z,13.43
2019-05-12T17:42:02.213Z,13.00
2019-05-12T17:44:31.279Z,13.37
2019-05-12T17:47:00.592Z,13.77
2019-05-12T17:49:30.894Z,15.60
2019-05-12T17:52:04.406Z,17.73
2019-05-12T17:54:29.235Z,15.67
2019-05-12T17:56:58.120Z,13.33
2019-05-12T17:59:29.254Z,15.63
2019-05-12T18:01:57.529Z,12.57
2019-05-12T18:04:30.380Z,17.17
2019-05-12T18:06:57.863Z,14.50
2019-05-12T18:09:26.187Z,12.37
2019-05-12T18:11:56.294Z,14.53
2019-05-12T18:14:27.531Z,11.40
2019-05-12T18:17:02.820Z,13.87
2019-05-12T18:19:24.775Z,12.90
2019-05-12T18:21:54.970Z,15.30
2019-05-12T18:24:24.071Z,12.87
2019-05-12T18:26:56.463Z,14.93
2019-05-12T18:29:23.695Z,17.03
2019-05-12T18:31:53.441Z,16.47
2019-05-12T18:34:22.195Z,12.40
2019-05-12T18:36:55.842Z,13.53
2019-05-12T18:39:20.652Z,13.97
2019-05-12T18:41:49.044Z,19.03
2019-05-12T18:44:27.833Z,13.93
2019-05-12T18:46:47.555Z,15.70
2019-05-12T18:49:16.302Z,14.63
2019-05-12T18:51:49.236Z,15.70
2019-05-12T18:54:15.166Z,21.77
2019-05-12T18:56:44.029Z,20.73
2019-05-12T18:59:16.083Z,17.27
2019-05-12T19:01:43.648Z,18.30
2019-05-12T19:04:14.361Z,16.87
2019-05-12T19:06:43.927Z,15.07
2019-05-12T19:09:13.774Z,15.87
2019-05-12T19:11:46.427Z,15.33
2019-05-12T19:14:13.484Z,13.83
2019-05-12T19:16:43.668Z,16.37
2019-05-12T19:19:16.469Z,14.90
2019-05-12T19:21:43.737Z,11.30
2019-05-12T19:24:16.821Z,13.60
2019-05-12T19:26:43.985Z,17.37
2019-05-12T19:29:14.206Z,13.20
2019-05-12T19:31:51.948Z,14.17
2019-05-12T19:34:19.979Z,15.63
2019-05-12T19:36:48.928Z,14.77
2019-05-12T19:39:12.915Z,13.17
2019-05-12T19:42:00.738Z,15.07
2019-05-12T19:44:30.826Z,14.13
2019-05-12T19:46:59.312Z,13.83
2019-05-12T19:49:29.679Z,12.57
2019-05-12T19:51:57.795Z,15.10
2019-05-12T19:54:30.226Z,15.00
2019-05-12T19:56:56.267Z,16.07
2019-05-12T19:59:24.688Z,18.10
2019-05-12T20:01:53.671Z,17.30
2019-05-12T20:04:30.945Z,16.87
2019-05-12T20:06:54.361Z,15.10
2019-05-12T20:09:24.299Z,17.03
2019-05-12T20:11:53.627Z,12.63
2019-05-12T20:14:24.050Z,17.10
2019-05-12T20:16:54.482Z,18.17
2019-05-12T20:19:25.201Z,13.90
2019-05-12T20:21:54.292Z,13.97
2019-05-12T20:24:23.680Z,10.93
2019-05-12T20:26:53.758Z,11.77
2019-05-12T20:29:26.657Z,11.77
2019-05-12T20:31:53.770Z,13.40
2019-05-12T20:34:24.495Z,12.70
2019-05-12T20:36:53.671Z,14.10
2019-05-12T20:39:24.530Z,12.47
2019-05-12T20:41:54.569Z,12.53
2019-05-12T20:44:23.867Z,11.20
2019-05-12T20:46:56.283Z,13.17
2019-05-12T20:49:24.176Z,14.03
2019-05-12T20:51:54.892Z,14.07
2019-05-12T20:54:23.932Z,12.63
2019-05-12T20:57:01.932Z,16.80
2019-05-12T20:59:27.927Z,12.87
2019-05-12T21:01:52.598Z,11.80
2019-05-12T21:04:22.028Z,14.80
2019-05-12T21:06:51.000Z,14.60
2019-05-12T21:09:19.455Z,9.80
2019-05-12T21:11:47.833Z,11.27
2019-05-12T21:14:16.242Z,11.10
2019-05-12T21:16:45.041Z,11.73
2019-05-12T21:19:14.206Z,10.07
2019-05-12T21:21:44.371Z,8.67
2019-05-12T21:24:13.935Z,8.67
2019-05-12T21:26:44.060Z,9.50
2019-05-12T21:29:13.771Z,8.67
2019-05-12T21:31:44.408Z,8.70
2019-05-12T21:34:20.657Z,10.30
2019-05-12T21:36:44.423Z,7.60
2019-05-12T21:39:13.952Z,9.20
2019-05-12T21:41:50.484Z,10.27
2019-05-12T21:44:14.108Z,10.00
2019-05-12T21:46:46.958Z,10.37
2019-05-12T21:49:15.497Z,10.17
2019-05-12T21:51:44.633Z,10.57
2019-05-12T21:54:13.592Z,7.47
2019-05-12T21:56:45.010Z,12.00
2019-05-12T21:59:13.417Z,8.70
2019-05-12T22:01:43.568Z,10.00
2019-05-12T22:04:14.314Z,7.63
2019-05-12T22:06:43.721Z,7.53
2019-05-12T22:09:14.675Z,7.03
2019-05-12T22:11:50.649Z,9.80
2019-05-12T22:14:13.652Z,5.97
2019-05-12T22:16:46.856Z,8.57
2019-05-12T22:19:13.924Z,7.87
2019-05-12T22:21:49.176Z,8.60
2019-05-12T22:24:14.590Z,5.17
2019-05-12T22:26:45.866Z,5.70
2019-05-12T22:29:13.577Z,5.10
2019-05-12T22:31:45.001Z,5.93
2019-05-12T22:34:12.374Z,7.87
2019-05-12T22:36:45.337Z,9.17
2019-05-12T22:39:11.035Z,5.30
2019-05-12T22:41:41.448Z,10.00
2019-05-12T22:44:09.479Z,7.73
2019-05-12T22:46:38.041Z,8.83
2019-05-12T22:49:10.549Z,7.57
2019-05-12T22:51:36.648Z,5.43
2019-05-12T22:54:08.573Z,7.83
2019-05-12T22:56:35.219Z,5.83
2019-05-12T22:59:04.556Z,8.33
2019-05-12T23:01:41.194Z,5.73
2019-05-12T23:04:03.987Z,8.73
2019-05-12T23:06:33.504Z,9.80
2019-05-12T23:09:04.233Z,7.60
2019-05-12T23:11:37.664Z,5.47
2019-05-12T23:14:04.032Z,7.53
2019-05-12T23:16:33.575Z,7.10
2019-05-12T23:19:10.339Z,11.77
2019-05-12T23:21:32.063Z,6.80
2019-05-12T23:24:00.864Z,5.83
2019-05-12T23:26:35.638Z,7.27
2019-05-12T23:28:59.445Z,9.53
2019-05-12T23:31:30.096Z,8.50
2019-05-12T23:33:57.847Z,9.23
2019-05-12T23:36:35.819Z,7.83
2019-05-12T23:39:00.415Z,7.67
2019-05-12T23:41:26.321Z,6.30
2019-05-12T23:43:54.781Z,5.80
2019-05-12T23:46:23.591Z,9.23
2019-05-12T23:48:54.222Z,7.63
2019-05-12T23:51:23.581Z,7.70
2019-05-12T23:53:52.151Z,5.63
2019-05-12T23:56:20.542Z,6.97
2019-05-12T23:58:48.947Z,8.97
